Time;durP1;ratioP1;P1;durP2;ratioP2;P2;SDS_P1;SDS_P2;PMS_P1;PMS_P2;Temp;Humidity;BMP_temperature;BMP_pressure;BME280_temperature;BME280_humidity;BME280_pressure;Samples;Min_cycle;Max_cycle;Signal;HPM_P1;HPM_P2
2023/03/24 00:01:47;;;;;;;17.10;12.40;;;;;;;12.38;52.12;100032.29;104861;1258;64549;-68
2023/03/24 00:04:16;;;;;;;16.20;12.80;;;;;;;12.37;52.13;100032.02;104611;1258;59863;-68
2023/03/24 00:06:48;;;;;;;19.80;11.60;;;;;;;12.35;52.13;100030.38;104487;1269;59250;-67
2023/03/24 00:09:16;;;;;;;17.30;11.70;;;;;;;12.32;52.20;100031.14;104671;1259;65623;-67
2023/03/24 00:11:45;;;;;;;14.60;11.70;;;;;;;12.31;52.22;100032.35;104688;1254;60401;-68
2023/03/24 00:14:17;;;;;;;17.30;11.30;;;;;;;12.30;52.32;100030.63;104752;1254;64595;-67
2023/03/24 00:16:46;;;;;;;16.30;11.20;;;;;;;12.28;52.37;100027.28;104963;1254;60480;-68
2023/03/24 00:19:15;;;;;;;18.10;11.70;;;;;;;12.27;52.35;100026.23;104849;1254;59167;-67
2023/03/24 00:21:47;;;;;;;15.60;11.40;;;;;;;12.25;52.50;100030.13;104773;1254;66826;-67
2023/03/24 00:24:16;;;;;;;17.10;11.10;;;;;;;12.23;52.57;100031.30;104845;1254;60418;-68
2023/03/24 00:26:47;;;;;;;15.90;11.80;;;;;;;12.23;52.53;100034.63;104733;1257;64533;-68
2023/03/24 00:29:16;;;;;;;17.00;11.40;;;;;;;12.22;52.55;100036.34;104924;1254;60271;-68
2023/03/24 00:31:45;;;;;;;16.10;10.80;;;;;;;12.21;52.51;100037.71;104820;1257;60338;-69
2023/03/24 00:34:14;;;;;;;15.50;11.40;;;;;;;12.18;52.55;100035.49;104829;1254;65694;-68
2023/03/24 00:36:44;;;;;;;13.80;11.30;;;;;;;12.15;52.63;100028.20;104662;1260;60421;-68
2023/03/24 00:39:12;;;;;;;14.10;11.10;;;;;;;12.11;52.64;100023.80;104553;1258;65817;-66
2023/03/24 00:41:46;;;;;;;16.90;11.00;;;;;;;12.08;52.72;100017.52;104556;1254;59084;-68
2023/03/24 00:44:18;;;;;;;13.70;11.00;;;;;;;12.06;52.91;100013.86;104522;1258;60342;-68
2023/03/24 00:46:54;;;;;;;15.10;10.80;;;;;;;12.05;52.96;100014.66;104420;1254;65759;-68
2023/03/24 00:49:43;;;;;;;14.10;10.00;;;;;;;12.01;53.08;100015.50;104668;1254;60430;-68
2023/03/24 00:52:19;;;;;;;13.30;10.40;;;;;;;11.98;53.20;100008.22;104659;1257;65252;-68
2023/03/24 00:54:58;;;;;;;13.50;10.60;;;;;;;11.98;53.31;100005.34;104545;1257;59618;-68
2023/03/24 00:57:28;;;;;;;14.60;10.30;;;;;;;12.02;53.32;100007.09;104439;1254;60464;-68
2023/03/24 00:59:57;;;;;;;13.90;10.00;;;;;;;12.07;53.31;100006.11;104674;1254;65703;-68
2023/03/24 01:02:27;;;;;;;13.60;10.20;;;;;;;12.12;53.17;100005.20;104414;1256;59250;-68
2023/03/24 01:04:58;;;;;;;11.60;9.10;;;;;;;12.15;53.14;100003.80;104212;1254;65799;-68
2023/03/24 01:07:28;;;;;;;13.60;10.00;;;;;;;12.19;53.17;100000.95;104338;1254;60048;-68
2023/03/24 01:09:57;;;;;;;14.10;9.70;;;;;;;12.24;53.05;99998.44;104438;1259;59269;-68
2023/03/24 01:12:34;;;;;;;14.50;9.50;;;;;;;12.26;52.92;99997.52;104526;1260;66467;-68
2023/03/24 01:15:14;;;;;;;11.90;8.80;;;;;;;12.27;52.83;99993.84;104547;1254;60323;-68
2023/03/24 01:17:45;;;;;;;17.30;9.90;;;;;;;12.29;52.68;99987.64;104684;1260;64482;-68
2023/03/24 01:20:15;;;;;;;13.70;9.80;;;;;;;12.30;52.65;99985.80;104508;1254;61002;-68
2023/03/24 01:22:43;;;;;;;13.30;9.40;;;;;;;12.31;52.63;99979.94;104279;1260;60035;-68
2023/03/24 01:25:19;;;;;;;16.50;10.00;;;;;;;12.29;52.72;99974.27;104513;1257;66597;-68
2023/03/24 01:27:48;;;;;;;13.20;9.80;;;;;;;12.27;52.76;99975.66;104792;1254;59225;-68
2023/03/24 01:30:20;;;;;;;13.90;9.30;;;;;;;12.25;52.86;99969.88;104515;1254;65313;-68
2023/03/24 01:32:50;;;;;;;14.40;9.50;;;;;;;12.24;53.02;99972.61;104490;1260;60414;-68
2023/03/24 01:35:21;;;;;;;15.00;9.20;;;;;;;12.24;53.05;99974.54;104589;1260;60527;-68
2023/03/24 01:37:49;;;;;;;11.90;9.20;;;;;;;12.24;53.06;99971.55;104766;1257;66227;-68
2023/03/24 01:40:21;;;;;;;13.00;9.00;;;;;;;12.23;53.14;99969.02;104784;1254;59310;-68
2023/03/24 01:42:50;;;;;;;14.10;9.00;;;;;;;12.20;53.22;99969.09;104324;1254;65909;-68
2023/03/24 01:45:37;;;;;;;15.50;9.60;;;;;;;12.18;53.35;99965.27;105026;1257;60552;-68
2023/03/24 01:48:44;;;;;;;13.80;9.80;;;;;;;12.18;53.30;99962.48;104891;1257;58904;-68
2023/03/24 01:51:26;;;;;;;14.70;9.30;;;;;;;12.15;53.45;99957.79;104545;1260;64909;-68
2023/03/24 01:53:58;;;;;;;13.20;9.50;;;;;;;12.12;53.55;99955.25;104435;1254;60419;-68
2023/03/24 01:56:27;;;;;;;12.40;9.50;;;;;;;12.09;53.67;99959.77;104507;1255;65666;-67
2023/03/24 01:59:06;;;;;;;11.90;9.50;;;;;;;12.07;53.69;99954.63;104631;1254;59378;-68
2023/03/24 02:01:43;;;;;;;12.60;9.10;;;;;;;12.04;53.76;99952.00;105497;1259;58763;-67
2023/03/24 02:04:40;;;;;;;15.40;10.00;;;;;;;12.02;53.71;99951.86;104053;1260;66827;-67
